Main page
METAR-TAF:

METAR-TAF

Airports :

Gibraltar International Airport

Gibraltar, Gibraltar

latitude: 36-09N, longitude: 005-21W, elevation: 5 m

Current weather observation

The report was made 11 minutes ago, at 07:20 UTC
Wind 8 kt from the West/Southwest
Temperature 22°C
Humidity 73%
Pressure 1015 hPa
Visibility 10 km or more
Few clouds at a height of 1500 ft
Broken clouds at a height of 25000 ft

METAR: LXGB 150720Z 25008KT 9999 FEW015 BKN250 22/17 Q1015 NOSIG RMK BLU BLU

Time: 09:31 (07:31 UTC)

Forecast

The report was made 2 hours and 40 minutes ago, at 04:51 UTC
Forecast valid from 15 at 06 UTC to 15 at 15 UTC
Wind 10 kt from the West/Southwest
Visibility 10 km or more
Few clouds at a height of 1400 ft

TAF: LXGB 150451Z 1506/1515 24010KT 9999 FEW014

Weather observations and forecasts of more than 4000 airports (METAR and TAF reports).

The available stations are represented by yellow and red dots on the map.

Hover mouse over dot to see the name of the station.

Then click to see weather observations and forecasts.

To change the map : click on the green buttons with a black cross to zoom in, on the green button with a dash to zoom out, or on the green arrows for adjacent maps.


METAR-TAF: